Terminal Aerodrome Forecast
Issued by NWS Tulsa, OK

Home | Current Version | Previous Version | Text Only | Print | Product List | Glossary On
Versions: 1 2 3 4 5 6 7 8 9 10 11 12 13 14 15 16 17
000
FTUS44 KTSA 212332
TAFTUL
TAF
KTUL 212332Z 2200/2224 16012G18KT P6SM FEW045 FEW150
     FM220100 16011KT P6SM FEW150
     FM221400 18011KT P6SM FEW028
     FM221700 17012G21KT P6SM SCT050=

USA.gov is the U.S. government's official web portal to all federal, state and local government web resources and services.